sensor_id;sensor_type;location;lat;lon;timestamp;P1;durP1;ratioP1;P2;durP2;ratioP2
63975;SDS011;50167;47.958;21.780;2023-05-02T00:02:11;10.40;;;6.77;;
63975;SDS011;50167;47.958;21.780;2023-05-02T00:04:37;9.73;;;7.13;;
63975;SDS011;50167;47.958;21.780;2023-05-02T00:07:04;9.27;;;5.77;;
63975;SDS011;50167;47.958;21.780;2023-05-02T00:09:31;9.43;;;6.40;;
63975;SDS011;50167;47.958;21.780;2023-05-02T00:11:57;8.47;;;5.50;;
63975;SDS011;50167;47.958;21.780;2023-05-02T00:14:24;15.10;;;5.43;;
63975;SDS011;50167;47.958;21.780;2023-05-02T00:16:50;12.90;;;7.57;;
63975;SDS011;50167;47.958;21.780;2023-05-02T00:19:17;12.10;;;7.20;;
63975;SDS011;50167;47.958;21.780;2023-05-02T00:21:46;11.97;;;5.80;;
63975;SDS011;50167;47.958;21.780;2023-05-02T00:24:16;14.73;;;5.90;;
63975;SDS011;50167;47.958;21.780;2023-05-02T00:26:43;11.20;;;6.00;;
63975;SDS011;50167;47.958;21.780;2023-05-02T00:29:09;12.93;;;6.60;;
63975;SDS011;50167;47.958;21.780;2023-05-02T00:31:35;9.20;;;6.27;;
63975;SDS011;50167;47.958;21.780;2023-05-02T00:34:01;12.93;;;6.33;;
63975;SDS011;50167;47.958;21.780;2023-05-02T00:36:30;11.87;;;6.00;;
63975;SDS011;50167;47.958;21.780;2023-05-02T00:38:56;13.20;;;6.80;;
63975;SDS011;50167;47.958;21.780;2023-05-02T00:41:23;10.53;;;5.33;;
63975;SDS011;50167;47.958;21.780;2023-05-02T00:43:49;7.33;;;4.73;;
63975;SDS011;50167;47.958;21.780;2023-05-02T00:46:16;12.53;;;6.23;;
63975;SDS011;50167;47.958;21.780;2023-05-02T00:48:42;10.53;;;5.60;;
63975;SDS011;50167;47.958;21.780;2023-05-02T00:51:09;10.60;;;5.63;;
63975;SDS011;50167;47.958;21.780;2023-05-02T00:53:38;9.17;;;5.43;;
63975;SDS011;50167;47.958;21.780;2023-05-02T00:56:06;9.30;;;5.77;;
63975;SDS011;50167;47.958;21.780;2023-05-02T00:58:34;11.80;;;5.27;;
63975;SDS011;50167;47.958;21.780;2023-05-02T01:03:54;11.07;;;5.60;;
63975;SDS011;50167;47.958;21.780;2023-05-02T01:14:54;9.13;;;4.83;;
63975;SDS011;50167;47.958;21.780;2023-05-02T01:17:23;7.33;;;5.40;;
63975;SDS011;50167;47.958;21.780;2023-05-02T01:19:55;9.03;;;5.43;;
63975;SDS011;50167;47.958;21.780;2023-05-02T01:22:24;10.37;;;5.40;;
63975;SDS011;50167;47.958;21.780;2023-05-02T01:25:09;9.35;;;5.70;;
63975;SDS011;50167;47.958;21.780;2023-05-02T01:30:51;8.00;;;5.80;;
63975;SDS011;50167;47.958;21.780;2023-05-02T01:33:20;7.40;;;5.20;;
63975;SDS011;50167;47.958;21.780;2023-05-02T01:35:49;8.07;;;5.00;;
63975;SDS011;50167;47.958;21.780;2023-05-02T01:38:17;9.47;;;4.83;;
63975;SDS011;50167;47.958;21.780;2023-05-02T01:40:45;9.73;;;5.57;;
63975;SDS011;50167;47.958;21.780;2023-05-02T01:43:14;11.40;;;6.30;;
63975;SDS011;50167;47.958;21.780;2023-05-02T01:45:43;11.50;;;5.43;;
63975;SDS011;50167;47.958;21.780;2023-05-02T01:48:12;9.47;;;5.53;;
63975;SDS011;50167;47.958;21.780;2023-05-02T01:50:42;9.00;;;5.33;;
63975;SDS011;50167;47.958;21.780;2023-05-02T01:53:11;10.03;;;6.10;;
63975;SDS011;50167;47.958;21.780;2023-05-02T01:55:43;8.97;;;5.50;;
63975;SDS011;50167;47.958;21.780;2023-05-02T01:58:11;11.53;;;6.30;;
63975;SDS011;50167;47.958;21.780;2023-05-02T02:00:39;10.53;;;6.43;;
63975;SDS011;50167;47.958;21.780;2023-05-02T02:03:09;10.40;;;5.67;;
63975;SDS011;50167;47.958;21.780;2023-05-02T02:05:36;7.87;;;5.27;;
63975;SDS011;50167;47.958;21.780;2023-05-02T02:08:04;12.87;;;6.50;;
63975;SDS011;50167;47.958;21.780;2023-05-02T02:10:31;9.07;;;5.40;;
63975;SDS011;50167;47.958;21.780;2023-05-02T02:13:06;9.77;;;5.43;;
63975;SDS011;50167;47.958;21.780;2023-05-02T02:15:48;7.57;;;5.33;;
63975;SDS011;50167;47.958;21.780;2023-05-02T02:18:18;8.10;;;5.60;;
63975;SDS011;50167;47.958;21.780;2023-05-02T02:20:49;11.63;;;6.17;;
63975;SDS011;50167;47.958;21.780;2023-05-02T02:23:16;11.23;;;6.50;;
63975;SDS011;50167;47.958;21.780;2023-05-02T02:25:50;18.52;;;6.92;;
63975;SDS011;50167;47.958;21.780;2023-05-02T02:28:16;11.73;;;6.57;;
63975;SDS011;50167;47.958;21.780;2023-05-02T02:30:43;11.40;;;6.43;;
63975;SDS011;50167;47.958;21.780;2023-05-02T02:33:09;8.87;;;5.97;;
63975;SDS011;50167;47.958;21.780;2023-05-02T02:35:43;11.80;;;5.80;;
63975;SDS011;50167;47.958;21.780;2023-05-02T02:38:17;10.37;;;5.57;;
63975;SDS011;50167;47.958;21.780;2023-05-02T02:43:52;10.50;;;5.73;;
63975;SDS011;50167;47.958;21.780;2023-05-02T02:46:33;10.33;;;6.10;;
63975;SDS011;50167;47.958;21.780;2023-05-02T02:49:21;11.03;;;6.70;;
63975;SDS011;50167;47.958;21.780;2023-05-02T02:52:07;9.07;;;5.60;;
63975;SDS011;50167;47.958;21.780;2023-05-02T02:55:06;8.83;;;6.23;;
63975;SDS011;50167;47.958;21.780;2023-05-02T03:00:24;10.43;;;6.53;;
63975;SDS011;50167;47.958;21.780;2023-05-02T03:02:52;11.75;;;6.47;;
63975;SDS011;50167;47.958;21.780;2023-05-02T03:05:23;11.93;;;5.60;;
63975;SDS011;50167;47.958;21.780;2023-05-02T03:07:50;9.87;;;6.20;;
63975;SDS011;50167;47.958;21.780;2023-05-02T03:10:17;12.17;;;7.03;;
63975;SDS011;50167;47.958;21.780;2023-05-02T03:12:43;15.67;;;5.93;;
63975;SDS011;50167;47.958;21.780;2023-05-02T03:15:26;8.27;;;6.27;;
63975;SDS011;50167;47.958;21.780;2023-05-02T03:18:10;9.20;;;6.42;;
63975;SDS011;50167;47.958;21.780;2023-05-02T03:20:36;8.33;;;5.30;;
63975;SDS011;50167;47.958;21.780;2023-05-02T03:23:02;13.73;;;6.00;;
63975;SDS011;50167;47.958;21.780;2023-05-02T03:25:29;11.03;;;4.97;;
63975;SDS011;50167;47.958;21.780;2023-05-02T03:27:58;8.80;;;4.73;;
63975;SDS011;50167;47.958;21.780;2023-05-02T03:30:24;10.03;;;5.97;;
63975;SDS011;50167;47.958;21.780;2023-05-02T03:32:50;16.47;;;6.47;;
63975;SDS011;50167;47.958;21.780;2023-05-02T03:35:17;9.67;;;6.17;;
63975;SDS011;50167;47.958;21.780;2023-05-02T03:37:44;12.83;;;6.93;;
63975;SDS011;50167;47.958;21.780;2023-05-02T03:40:10;9.70;;;5.93;;
63975;SDS011;50167;47.958;21.780;2023-05-02T03:42:37;11.80;;;6.63;;
63975;SDS011;50167;47.958;21.780;2023-05-02T03:45:06;12.53;;;6.87;;
63975;SDS011;50167;47.958;21.780;2023-05-02T03:47:33;10.83;;;6.00;;
63975;SDS011;50167;47.958;21.780;2023-05-02T03:49:59;9.73;;;5.60;;
63975;SDS011;50167;47.958;21.780;2023-05-02T03:52:27;11.90;;;6.63;;
63975;SDS011;50167;47.958;21.780;2023-05-02T03:54:53;9.27;;;5.47;;
63975;SDS011;50167;47.958;21.780;2023-05-02T03:57:19;7.17;;;4.87;;
63975;SDS011;50167;47.958;21.780;2023-05-02T03:59:46;8.10;;;5.37;;
63975;SDS011;50167;47.958;21.780;2023-05-02T04:02:13;14.07;;;6.33;;
63975;SDS011;50167;47.958;21.780;2023-05-02T04:04:40;9.30;;;6.23;;
63975;SDS011;50167;47.958;21.780;2023-05-02T04:07:07;8.70;;;6.13;;
63975;SDS011;50167;47.958;21.780;2023-05-02T04:09:35;11.37;;;6.30;;
63975;SDS011;50167;47.958;21.780;2023-05-02T04:12:01;11.67;;;5.80;;
63975;SDS011;50167;47.958;21.780;2023-05-02T04:14:27;12.13;;;6.40;;
63975;SDS011;50167;47.958;21.780;2023-05-02T04:16:53;11.27;;;6.33;;
63975;SDS011;50167;47.958;21.780;2023-05-02T04:19:19;9.73;;;5.90;;
63975;SDS011;50167;47.958;21.780;2023-05-02T04:21:46;12.37;;;7.57;;
63975;SDS011;50167;47.958;21.780;2023-05-02T04:24:12;10.37;;;6.67;;
63975;SDS011;50167;47.958;21.780;2023-05-02T04:26:39;10.47;;;6.40;;
63975;SDS011;50167;47.958;21.780;2023-05-02T04:29:06;10.57;;;6.87;;
63975;SDS011;50167;47.958;21.780;2023-05-02T04:31:32;12.97;;;6.50;;
63975;SDS011;50167;47.958;21.780;2023-05-02T04:33:59;9.83;;;5.77;;
63975;SDS011;50167;47.958;21.780;2023-05-02T04:36:25;15.77;;;7.93;;
63975;SDS011;50167;47.958;21.780;2023-05-02T04:38:52;11.23;;;7.13;;
63975;SDS011;50167;47.958;21.780;2023-05-02T04:41:19;14.23;;;8.40;;
63975;SDS011;50167;47.958;21.780;2023-05-02T04:43:46;12.70;;;6.57;;
63975;SDS011;50167;47.958;21.780;2023-05-02T04:46:12;12.13;;;6.57;;
63975;SDS011;50167;47.958;21.780;2023-05-02T04:48:38;11.00;;;7.73;;
63975;SDS011;50167;47.958;21.780;2023-05-02T04:51:07;11.50;;;6.63;;
63975;SDS011;50167;47.958;21.780;2023-05-02T04:53:34;17.73;;;6.60;;
63975;SDS011;50167;47.958;21.780;2023-05-02T04:56:01;12.47;;;6.20;;
63975;SDS011;50167;47.958;21.780;2023-05-02T04:58:28;14.83;;;6.63;;
63975;SDS011;50167;47.958;21.780;2023-05-02T05:00:54;17.63;;;7.53;;
63975;SDS011;50167;47.958;21.780;2023-05-02T05:03:21;19.63;;;9.23;;
63975;SDS011;50167;47.958;21.780;2023-05-02T05:05:47;18.10;;;9.57;;
63975;SDS011;50167;47.958;21.780;2023-05-02T05:08:13;13.47;;;8.00;;
63975;SDS011;50167;47.958;21.780;2023-05-02T05:10:39;11.73;;;8.43;;
63975;SDS011;50167;47.958;21.780;2023-05-02T05:13:05;32.73;;;18.37;;
63975;SDS011;50167;47.958;21.780;2023-05-02T05:15:32;19.90;;;12.87;;
63975;SDS011;50167;47.958;21.780;2023-05-02T05:17:58;18.53;;;11.43;;
63975;SDS011;50167;47.958;21.780;2023-05-02T05:20:24;26.17;;;11.17;;
63975;SDS011;50167;47.958;21.780;2023-05-02T05:22:51;20.70;;;9.57;;
63975;SDS011;50167;47.958;21.780;2023-05-02T05:25:17;13.53;;;8.13;;
63975;SDS011;50167;47.958;21.780;2023-05-02T05:27:43;14.60;;;9.40;;
63975;SDS011;50167;47.958;21.780;2023-05-02T05:30:10;18.37;;;10.63;;
63975;SDS011;50167;47.958;21.780;2023-05-02T05:32:36;17.43;;;10.60;;
63975;SDS011;50167;47.958;21.780;2023-05-02T05:35:03;17.50;;;9.50;;
63975;SDS011;50167;47.958;21.780;2023-05-02T05:37:30;17.87;;;9.20;;
63975;SDS011;50167;47.958;21.780;2023-05-02T05:39:56;16.80;;;8.07;;
63975;SDS011;50167;47.958;21.780;2023-05-02T05:42:22;16.77;;;7.67;;
63975;SDS011;50167;47.958;21.780;2023-05-02T05:44:54;13.00;;;7.97;;
63975;SDS011;50167;47.958;21.780;2023-05-02T05:47:20;14.83;;;7.20;;
63975;SDS011;50167;47.958;21.780;2023-05-02T05:49:46;13.73;;;7.57;;
63975;SDS011;50167;47.958;21.780;2023-05-02T05:52:14;13.87;;;7.00;;
63975;SDS011;50167;47.958;21.780;2023-05-02T05:54:41;12.97;;;7.23;;
63975;SDS011;50167;47.958;21.780;2023-05-02T05:57:07;17.57;;;9.20;;
63975;SDS011;50167;47.958;21.780;2023-05-02T05:59:36;17.13;;;8.57;;
63975;SDS011;50167;47.958;21.780;2023-05-02T06:02:03;14.67;;;7.93;;
63975;SDS011;50167;47.958;21.780;2023-05-02T06:04:30;13.00;;;7.73;;
63975;SDS011;50167;47.958;21.780;2023-05-02T06:06:56;12.03;;;7.80;;
63975;SDS011;50167;47.958;21.780;2023-05-02T06:09:22;12.50;;;7.87;;
63975;SDS011;50167;47.958;21.780;2023-05-02T06:11:48;14.07;;;7.97;;
63975;SDS011;50167;47.958;21.780;2023-05-02T06:14:14;18.17;;;7.97;;
63975;SDS011;50167;47.958;21.780;2023-05-02T06:16:41;12.73;;;6.90;;
63975;SDS011;50167;47.958;21.780;2023-05-02T06:19:07;14.70;;;7.20;;
63975;SDS011;50167;47.958;21.780;2023-05-02T06:21:36;12.60;;;7.33;;
63975;SDS011;50167;47.958;21.780;2023-05-02T06:24:03;9.47;;;7.33;;
63975;SDS011;50167;47.958;21.780;2023-05-02T06:26:30;11.93;;;6.70;;
63975;SDS011;50167;47.958;21.780;2023-05-02T06:28:57;13.43;;;6.70;;
63975;SDS011;50167;47.958;21.780;2023-05-02T06:31:23;12.53;;;7.43;;
63975;SDS011;50167;47.958;21.780;2023-05-02T06:33:49;8.30;;;6.70;;
63975;SDS011;50167;47.958;21.780;2023-05-02T06:36:17;15.73;;;7.67;;
63975;SDS011;50167;47.958;21.780;2023-05-02T06:38:43;11.00;;;7.03;;
63975;SDS011;50167;47.958;21.780;2023-05-02T06:41:16;10.27;;;6.73;;
63975;SDS011;50167;47.958;21.780;2023-05-02T06:43:40;9.60;;;6.37;;
63975;SDS011;50167;47.958;21.780;2023-05-02T06:46:07;9.03;;;6.20;;
63975;SDS011;50167;47.958;21.780;2023-05-02T06:48:36;11.17;;;6.87;;
63975;SDS011;50167;47.958;21.780;2023-05-02T06:51:03;10.23;;;6.35;;
63975;SDS011;50167;47.958;21.780;2023-05-02T06:53:29;15.63;;;6.83;;
63975;SDS011;50167;47.958;21.780;2023-05-02T06:55:56;18.17;;;7.27;;
63975;SDS011;50167;47.958;21.780;2023-05-02T06:58:22;12.60;;;7.27;;
63975;SDS011;50167;47.958;21.780;2023-05-02T07:00:48;14.87;;;8.07;;
63975;SDS011;50167;47.958;21.780;2023-05-02T07:03:15;14.70;;;8.20;;
63975;SDS011;50167;47.958;21.780;2023-05-02T07:05:41;12.73;;;8.10;;
63975;SDS011;50167;47.958;21.780;2023-05-02T07:08:07;12.70;;;7.37;;
63975;SDS011;50167;47.958;21.780;2023-05-02T07:10:34;10.47;;;7.40;;
63975;SDS011;50167;47.958;21.780;2023-05-02T07:13:01;9.13;;;6.47;;
63975;SDS011;50167;47.958;21.780;2023-05-02T07:15:28;10.60;;;5.70;;
63975;SDS011;50167;47.958;21.780;2023-05-02T07:17:54;9.67;;;5.90;;
63975;SDS011;50167;47.958;21.780;2023-05-02T07:20:20;10.40;;;6.97;;
63975;SDS011;50167;47.958;21.780;2023-05-02T07:22:47;7.73;;;6.07;;
63975;SDS011;50167;47.958;21.780;2023-05-02T07:25:14;11.00;;;5.87;;
63975;SDS011;50167;47.958;21.780;2023-05-02T07:27:40;9.15;;;5.70;;
63975;SDS011;50167;47.958;21.780;2023-05-02T07:30:07;10.30;;;5.83;;
63975;SDS011;50167;47.958;21.780;2023-05-02T07:32:34;10.48;;;5.87;;
63975;SDS011;50167;47.958;21.780;2023-05-02T07:35:00;22.27;;;6.58;;
63975;SDS011;50167;47.958;21.780;2023-05-02T07:37:30;7.92;;;6.15;;
63975;SDS011;50167;47.958;21.780;2023-05-02T07:39:58;15.35;;;5.72;;
63975;SDS011;50167;47.958;21.780;2023-05-02T07:42:30;12.13;;;6.22;;
63975;SDS011;50167;47.958;21.780;2023-05-02T07:44:57;8.93;;;6.22;;
63975;SDS011;50167;47.958;21.780;2023-05-02T07:47:24;7.60;;;5.17;;
63975;SDS011;50167;47.958;21.780;2023-05-02T07:49:54;15.57;;;5.50;;
63975;SDS011;50167;47.958;21.780;2023-05-02T07:52:20;8.13;;;5.15;;
63975;SDS011;50167;47.958;21.780;2023-05-02T07:54:47;13.85;;;5.58;;
63975;SDS011;50167;47.958;21.780;2023-05-02T07:57:14;22.02;;;6.00;;
63975;SDS011;50167;47.958;21.780;2023-05-02T07:59:41;9.00;;;5.40;;
63975;SDS011;50167;47.958;21.780;2023-05-02T08:02:07;7.20;;;5.17;;
63975;SDS011;50167;47.958;21.780;2023-05-02T08:04:33;11.40;;;4.90;;
63975;SDS011;50167;47.958;21.780;2023-05-02T08:07:00;8.75;;;5.12;;
63975;SDS011;50167;47.958;21.780;2023-05-02T08:09:26;9.68;;;5.90;;
63975;SDS011;50167;47.958;21.780;2023-05-02T08:11:52;12.10;;;5.78;;
63975;SDS011;50167;47.958;21.780;2023-05-02T08:14:18;7.78;;;4.50;;
63975;SDS011;50167;47.958;21.780;2023-05-02T08:16:45;13.58;;;5.53;;
63975;SDS011;50167;47.958;21.780;2023-05-02T08:19:11;7.85;;;4.97;;
63975;SDS011;50167;47.958;21.780;2023-05-02T08:21:37;9.28;;;4.92;;
63975;SDS011;50167;47.958;21.780;2023-05-02T08:24:03;8.05;;;4.17;;
63975;SDS011;50167;47.958;21.780;2023-05-02T08:26:30;7.60;;;4.47;;
63975;SDS011;50167;47.958;21.780;2023-05-02T08:28:56;5.35;;;4.62;;
63975;SDS011;50167;47.958;21.780;2023-05-02T08:31:22;13.85;;;4.75;;
63975;SDS011;50167;47.958;21.780;2023-05-02T08:33:49;8.63;;;4.87;;
63975;SDS011;50167;47.958;21.780;2023-05-02T08:36:16;12.80;;;4.42;;
63975;SDS011;50167;47.958;21.780;2023-05-02T08:38:44;7.03;;;4.78;;
63975;SDS011;50167;47.958;21.780;2023-05-02T08:41:11;10.75;;;4.65;;
63975;SDS011;50167;47.958;21.780;2023-05-02T08:43:43;8.53;;;4.33;;
63975;SDS011;50167;47.958;21.780;2023-05-02T08:46:11;5.67;;;3.92;;
63975;SDS011;50167;47.958;21.780;2023-05-02T08:48:40;9.67;;;4.33;;
63975;SDS011;50167;47.958;21.780;2023-05-02T08:51:10;10.38;;;4.33;;
63975;SDS011;50167;47.958;21.780;2023-05-02T08:53:38;8.40;;;3.75;;
63975;SDS011;50167;47.958;21.780;2023-05-02T08:56:06;10.53;;;3.80;;
63975;SDS011;50167;47.958;21.780;2023-05-02T08:58:36;21.90;;;6.20;;
63975;SDS011;50167;47.958;21.780;2023-05-02T09:03:44;4.05;;;3.15;;
63975;SDS011;50167;47.958;21.780;2023-05-02T09:08:50;5.78;;;3.10;;
63975;SDS011;50167;47.958;21.780;2023-05-02T09:11:19;7.12;;;3.47;;
63975;SDS011;50167;47.958;21.780;2023-05-02T09:13:47;7.92;;;3.85;;
63975;SDS011;50167;47.958;21.780;2023-05-02T09:16:22;9.50;;;3.47;;
63975;SDS011;50167;47.958;21.780;2023-05-02T09:18:54;19.52;;;3.22;;
63975;SDS011;50167;47.958;21.780;2023-05-02T09:21:33;5.47;;;3.62;;
63975;SDS011;50167;47.958;21.780;2023-05-02T09:24:02;13.28;;;3.77;;
63975;SDS011;50167;47.958;21.780;2023-05-02T09:26:42;5.90;;;3.87;;
63975;SDS011;50167;47.958;21.780;2023-05-02T09:29:26;7.83;;;3.20;;
63975;SDS011;50167;47.958;21.780;2023-05-02T09:31:55;6.17;;;3.52;;
63975;SDS011;50167;47.958;21.780;2023-05-02T09:34:21;9.25;;;3.50;;
63975;SDS011;50167;47.958;21.780;2023-05-02T09:36:48;5.33;;;3.25;;
63975;SDS011;50167;47.958;21.780;2023-05-02T09:39:20;9.50;;;3.90;;
63975;SDS011;50167;47.958;21.780;2023-05-02T09:41:50;6.42;;;3.00;;
63975;SDS011;50167;47.958;21.780;2023-05-02T09:44:18;4.55;;;3.08;;
63975;SDS011;50167;47.958;21.780;2023-05-02T09:49:14;7.42;;;2.92;;
63975;SDS011;50167;47.958;21.780;2023-05-02T09:54:12;9.40;;;4.08;;
63975;SDS011;50167;47.958;21.780;2023-05-02T09:56:54;7.35;;;3.42;;
63975;SDS011;50167;47.958;21.780;2023-05-02T09:59:22;5.95;;;3.75;;
63975;SDS011;50167;47.958;21.780;2023-05-02T10:01:53;4.78;;;3.35;;
63975;SDS011;50167;47.958;21.780;2023-05-02T10:04:24;6.62;;;2.98;;
63975;SDS011;50167;47.958;21.780;2023-05-02T10:06:52;5.62;;;3.10;;
63975;SDS011;50167;47.958;21.780;2023-05-02T10:09:19;3.52;;;2.67;;
63975;SDS011;50167;47.958;21.780;2023-05-02T10:11:49;6.75;;;2.55;;
63975;SDS011;50167;47.958;21.780;2023-05-02T10:14:21;4.80;;;3.27;;
63975;SDS011;50167;47.958;21.780;2023-05-02T10:16:59;4.40;;;2.67;;
63975;SDS011;50167;47.958;21.780;2023-05-02T10:19:37;4.45;;;2.92;;
63975;SDS011;50167;47.958;21.780;2023-05-02T10:22:09;2.75;;;2.50;;
63975;SDS011;50167;47.958;21.780;2023-05-02T10:24:37;4.33;;;3.15;;
63975;SDS011;50167;47.958;21.780;2023-05-02T10:27:04;8.38;;;3.27;;
63975;SDS011;50167;47.958;21.780;2023-05-02T10:29:31;3.85;;;2.83;;
63975;SDS011;50167;47.958;21.780;2023-05-02T10:31:59;6.65;;;2.77;;
63975;SDS011;50167;47.958;21.780;2023-05-02T10:34:28;4.75;;;2.65;;
63975;SDS011;50167;47.958;21.780;2023-05-02T10:36:59;4.87;;;3.30;;
63975;SDS011;50167;47.958;21.780;2023-05-02T10:39:26;6.53;;;2.52;;
63975;SDS011;50167;47.958;21.780;2023-05-02T10:41:54;4.58;;;2.37;;
63975;SDS011;50167;47.958;21.780;2023-05-02T10:44:36;4.90;;;2.12;;
63975;SDS011;50167;47.958;21.780;2023-05-02T10:47:23;4.08;;;2.40;;
63975;SDS011;50167;47.958;21.780;2023-05-02T10:49:56;5.47;;;2.35;;
63975;SDS011;50167;47.958;21.780;2023-05-02T10:52:26;5.47;;;2.42;;
63975;SDS011;50167;47.958;21.780;2023-05-02T11:00:37;7.00;;;3.20;;
63975;SDS011;50167;47.958;21.780;2023-05-02T11:03:03;3.40;;;2.25;;
63975;SDS011;50167;47.958;21.780;2023-05-02T11:05:30;7.20;;;2.77;;
63975;SDS011;50167;47.958;21.780;2023-05-02T11:10:45;6.60;;;2.70;;
63975;SDS011;50167;47.958;21.780;2023-05-02T11:13:12;7.15;;;2.15;;
63975;SDS011;50167;47.958;21.780;2023-05-02T11:18:11;5.92;;;2.92;;
63975;SDS011;50167;47.958;21.780;2023-05-02T11:20:39;3.15;;;2.80;;
63975;SDS011;50167;47.958;21.780;2023-05-02T11:25:47;7.42;;;2.62;;
63975;SDS011;50167;47.958;21.780;2023-05-02T11:31:07;4.08;;;2.83;;
63975;SDS011;50167;47.958;21.780;2023-05-02T11:33:37;7.08;;;2.40;;
63975;SDS011;50167;47.958;21.780;2023-05-02T11:36:03;7.72;;;2.55;;
63975;SDS011;50167;47.958;21.780;2023-05-02T11:38:36;3.92;;;2.08;;
63975;SDS011;50167;47.958;21.780;2023-05-02T11:41:03;8.13;;;2.87;;
63975;SDS011;50167;47.958;21.780;2023-05-02T11:43:30;12.55;;;5.08;;
63975;SDS011;50167;47.958;21.780;2023-05-02T11:45:57;6.22;;;2.42;;
63975;SDS011;50167;47.958;21.780;2023-05-02T11:48:24;4.97;;;2.72;;
63975;SDS011;50167;47.958;21.780;2023-05-02T11:50:56;8.23;;;3.65;;
63975;SDS011;50167;47.958;21.780;2023-05-02T11:53:26;5.35;;;2.30;;
63975;SDS011;50167;47.958;21.780;2023-05-02T11:58:28;4.97;;;2.60;;
63975;SDS011;50167;47.958;21.780;2023-05-02T12:00:57;9.30;;;2.77;;
63975;SDS011;50167;47.958;21.780;2023-05-02T12:03:39;9.50;;;3.92;;
63975;SDS011;50167;47.958;21.780;2023-05-02T12:08:43;3.98;;;2.65;;
63975;SDS011;50167;47.958;21.780;2023-05-02T12:11:13;6.00;;;2.70;;
63975;SDS011;50167;47.958;21.780;2023-05-02T12:13:47;11.25;;;3.85;;
63975;SDS011;50167;47.958;21.780;2023-05-02T12:16:14;20.43;;;5.85;;
63975;SDS011;50167;47.958;21.780;2023-05-02T12:18:41;11.55;;;4.00;;
63975;SDS011;50167;47.958;21.780;2023-05-02T12:21:08;5.45;;;3.10;;
63975;SDS011;50167;47.958;21.780;2023-05-02T12:23:34;5.10;;;2.22;;
63975;SDS011;50167;47.958;21.780;2023-05-02T12:26:14;9.00;;;2.95;;
63975;SDS011;50167;47.958;21.780;2023-05-02T12:28:53;3.37;;;2.58;;
63975;SDS011;50167;47.958;21.780;2023-05-02T12:31:21;6.15;;;2.90;;
63975;SDS011;50167;47.958;21.780;2023-05-02T12:37:36;6.50;;;2.33;;
63975;SDS011;50167;47.958;21.780;2023-05-02T12:40:13;3.47;;;2.30;;
63975;SDS011;50167;47.958;21.780;2023-05-02T12:42:36;5.12;;;2.60;;
63975;SDS011;50167;47.958;21.780;2023-05-02T12:45:02;2.55;;;2.20;;
63975;SDS011;50167;47.958;21.780;2023-05-02T12:47:29;3.90;;;2.20;;
63975;SDS011;50167;47.958;21.780;2023-05-02T12:49:59;2.25;;;1.65;;
63975;SDS011;50167;47.958;21.780;2023-05-02T12:55:22;2.92;;;1.82;;
63975;SDS011;50167;47.958;21.780;2023-05-02T12:58:01;3.08;;;1.55;;
63975;SDS011;50167;47.958;21.780;2023-05-02T13:00:31;3.83;;;2.05;;
63975;SDS011;50167;47.958;21.780;2023-05-02T13:02:59;7.10;;;1.80;;
63975;SDS011;50167;47.958;21.780;2023-05-02T13:05:25;4.30;;;1.75;;
63975;SDS011;50167;47.958;21.780;2023-05-02T13:07:52;3.70;;;1.80;;
63975;SDS011;50167;47.958;21.780;2023-05-02T13:10:20;5.42;;;1.95;;
63975;SDS011;50167;47.958;21.780;2023-05-02T13:12:49;3.72;;;1.65;;
63975;SDS011;50167;47.958;21.780;2023-05-02T13:15:16;3.70;;;1.82;;
63975;SDS011;50167;47.958;21.780;2023-05-02T13:17:42;3.55;;;1.52;;
63975;SDS011;50167;47.958;21.780;2023-05-02T13:20:08;3.58;;;2.25;;
63975;SDS011;50167;47.958;21.780;2023-05-02T13:22:36;3.60;;;1.77;;
63975;SDS011;50167;47.958;21.780;2023-05-02T13:25:03;3.92;;;2.37;;
63975;SDS011;50167;47.958;21.780;2023-05-02T13:27:31;6.28;;;1.80;;
63975;SDS011;50167;47.958;21.780;2023-05-02T13:29:58;7.35;;;1.80;;
63975;SDS011;50167;47.958;21.780;2023-05-02T13:32:26;2.90;;;1.75;;
63975;SDS011;50167;47.958;21.780;2023-05-02T13:34:53;1.92;;;1.40;;
63975;SDS011;50167;47.958;21.780;2023-05-02T13:37:20;5.87;;;2.47;;
63975;SDS011;50167;47.958;21.780;2023-05-02T13:39:46;6.53;;;1.95;;
63975;SDS011;50167;47.958;21.780;2023-05-02T13:42:12;5.25;;;1.85;;
63975;SDS011;50167;47.958;21.780;2023-05-02T13:44:39;7.10;;;2.40;;
63975;SDS011;50167;47.958;21.780;2023-05-02T13:47:05;6.28;;;1.92;;
63975;SDS011;50167;47.958;21.780;2023-05-02T13:49:31;2.42;;;1.70;;
63975;SDS011;50167;47.958;21.780;2023-05-02T13:52:00;5.05;;;1.72;;
63975;SDS011;50167;47.958;21.780;2023-05-02T13:54:26;6.12;;;2.20;;
63975;SDS011;50167;47.958;21.780;2023-05-02T13:56:52;6.37;;;2.37;;
63975;SDS011;50167;47.958;21.780;2023-05-02T13:59:20;6.67;;;2.55;;
63975;SDS011;50167;47.958;21.780;2023-05-02T14:01:47;10.18;;;2.22;;
63975;SDS011;50167;47.958;21.780;2023-05-02T14:04:13;4.47;;;1.67;;
63975;SDS011;50167;47.958;21.780;2023-05-02T14:06:40;3.87;;;1.65;;
63975;SDS011;50167;47.958;21.780;2023-05-02T14:09:06;10.08;;;1.82;;
63975;SDS011;50167;47.958;21.780;2023-05-02T14:11:33;4.25;;;2.83;;
63975;SDS011;50167;47.958;21.780;2023-05-02T14:13:59;11.40;;;2.15;;
63975;SDS011;50167;47.958;21.780;2023-05-02T14:16:26;2.52;;;1.72;;
63975;SDS011;50167;47.958;21.780;2023-05-02T14:18:52;2.22;;;1.80;;
63975;SDS011;50167;47.958;21.780;2023-05-02T14:21:18;3.25;;;2.00;;
63975;SDS011;50167;47.958;21.780;2023-05-02T14:23:45;3.92;;;1.77;;
63975;SDS011;50167;47.958;21.780;2023-05-02T14:26:11;6.55;;;1.80;;
63975;SDS011;50167;47.958;21.780;2023-05-02T14:28:38;2.05;;;1.50;;
63975;SDS011;50167;47.958;21.780;2023-05-02T14:31:06;2.72;;;1.70;;
63975;SDS011;50167;47.958;21.780;2023-05-02T14:33:32;1.92;;;1.60;;
63975;SDS011;50167;47.958;21.780;2023-05-02T14:35:58;2.62;;;1.55;;
63975;SDS011;50167;47.958;21.780;2023-05-02T14:38:25;4.72;;;1.50;;
63975;SDS011;50167;47.958;21.780;2023-05-02T14:40:51;2.22;;;1.60;;
63975;SDS011;50167;47.958;21.780;2023-05-02T14:43:19;5.97;;;1.60;;
63975;SDS011;50167;47.958;21.780;2023-05-02T14:45:45;12.35;;;1.75;;
63975;SDS011;50167;47.958;21.780;2023-05-02T14:48:12;2.58;;;1.40;;
63975;SDS011;50167;47.958;21.780;2023-05-02T14:50:40;5.20;;;1.77;;
63975;SDS011;50167;47.958;21.780;2023-05-02T14:53:07;2.90;;;1.57;;
63975;SDS011;50167;47.958;21.780;2023-05-02T14:55:36;5.12;;;1.52;;
63975;SDS011;50167;47.958;21.780;2023-05-02T14:58:05;4.12;;;1.80;;
63975;SDS011;50167;47.958;21.780;2023-05-02T15:00:33;6.65;;;2.10;;
63975;SDS011;50167;47.958;21.780;2023-05-02T15:03:02;3.10;;;1.62;;
63975;SDS011;50167;47.958;21.780;2023-05-02T15:05:30;4.15;;;1.85;;
63975;SDS011;50167;47.958;21.780;2023-05-02T15:07:56;5.83;;;2.20;;
63975;SDS011;50167;47.958;21.780;2023-05-02T15:10:23;5.22;;;2.27;;
63975;SDS011;50167;47.958;21.780;2023-05-02T15:12:49;2.37;;;1.65;;
63975;SDS011;50167;47.958;21.780;2023-05-02T15:15:16;2.27;;;1.80;;
63975;SDS011;50167;47.958;21.780;2023-05-02T15:17:43;2.40;;;2.12;;
63975;SDS011;50167;47.958;21.780;2023-05-02T15:20:10;4.70;;;2.10;;
63975;SDS011;50167;47.958;21.780;2023-05-02T15:22:38;10.70;;;2.25;;
63975;SDS011;50167;47.958;21.780;2023-05-02T15:25:05;9.38;;;2.33;;
63975;SDS011;50167;47.958;21.780;2023-05-02T15:27:32;6.42;;;2.80;;
63975;SDS011;50167;47.958;21.780;2023-05-02T15:29:59;7.25;;;2.40;;
63975;SDS011;50167;47.958;21.780;2023-05-02T15:32:27;3.75;;;2.20;;
63975;SDS011;50167;47.958;21.780;2023-05-02T15:34:54;5.30;;;3.02;;